sensor_id;sensor_type;location;lat;lon;timestamp;P1;durP1;ratioP1;P2;durP2;ratioP2
45077;SDS011;60508;42.622;25.416;2023-05-29T00:01:23;9.95;;;2.42;;
45077;SDS011;60508;42.622;25.416;2023-05-29T00:03:50;6.25;;;3.88;;
45077;SDS011;60508;42.622;25.416;2023-05-29T00:06:18;6.28;;;3.70;;
45077;SDS011;60508;42.622;25.416;2023-05-29T00:08:54;8.38;;;3.63;;
45077;SDS011;60508;42.622;25.416;2023-05-29T00:11:21;3.83;;;2.88;;
45077;SDS011;60508;42.622;25.416;2023-05-29T00:13:49;5.57;;;4.13;;
45077;SDS011;60508;42.622;25.416;2023-05-29T00:16:15;5.85;;;4.90;;
45077;SDS011;60508;42.622;25.416;2023-05-29T00:18:52;11.70;;;5.18;;
45077;SDS011;60508;42.622;25.416;2023-05-29T00:21:20;4.82;;;3.17;;
45077;SDS011;60508;42.622;25.416;2023-05-29T00:23:47;3.28;;;2.15;;
45077;SDS011;60508;42.622;25.416;2023-05-29T00:26:21;3.28;;;2.40;;
45077;SDS011;60508;42.622;25.416;2023-05-29T00:28:54;7.68;;;4.70;;
45077;SDS011;60508;42.622;25.416;2023-05-29T00:31:20;9.15;;;4.18;;
45077;SDS011;60508;42.622;25.416;2023-05-29T00:33:50;9.25;;;5.03;;
45077;SDS011;60508;42.622;25.416;2023-05-29T00:36:17;7.18;;;3.65;;
45077;SDS011;60508;42.622;25.416;2023-05-29T00:38:44;4.88;;;2.50;;
45077;SDS011;60508;42.622;25.416;2023-05-29T00:41:14;4.32;;;2.72;;
45077;SDS011;60508;42.622;25.416;2023-05-29T00:43:42;5.32;;;3.03;;
45077;SDS011;60508;42.622;25.416;2023-05-29T00:46:09;7.40;;;3.67;;
45077;SDS011;60508;42.622;25.416;2023-05-29T00:48:46;11.82;;;4.22;;
45077;SDS011;60508;42.622;25.416;2023-05-29T00:51:13;10.90;;;4.50;;
45077;SDS011;60508;42.622;25.416;2023-05-29T00:53:41;9.68;;;5.50;;
45077;SDS011;60508;42.622;25.416;2023-05-29T00:56:17;5.60;;;4.90;;
45077;SDS011;60508;42.622;25.416;2023-05-29T00:58:44;7.70;;;5.18;;
45077;SDS011;60508;42.622;25.416;2023-05-29T01:01:11;3.35;;;2.67;;
45077;SDS011;60508;42.622;25.416;2023-05-29T01:03:38;10.20;;;3.03;;
45077;SDS011;60508;42.622;25.416;2023-05-29T01:06:06;7.47;;;4.43;;
45077;SDS011;60508;42.622;25.416;2023-05-29T01:08:33;6.13;;;3.58;;
45077;SDS011;60508;42.622;25.416;2023-05-29T01:11:03;7.68;;;4.40;;
45077;SDS011;60508;42.622;25.416;2023-05-29T01:13:36;6.05;;;4.30;;
45077;SDS011;60508;42.622;25.416;2023-05-29T01:16:20;3.70;;;3.40;;
45077;SDS011;60508;42.622;25.416;2023-05-29T01:19:06;4.70;;;3.30;;
45077;SDS011;60508;42.622;25.416;2023-05-29T01:24:48;7.32;;;4.28;;
45077;SDS011;60508;42.622;25.416;2023-05-29T01:27:21;5.95;;;4.25;;
45077;SDS011;60508;42.622;25.416;2023-05-29T01:29:59;3.90;;;3.23;;
45077;SDS011;60508;42.622;25.416;2023-05-29T01:32:30;6.22;;;3.72;;
45077;SDS011;60508;42.622;25.416;2023-05-29T01:34:57;7.47;;;2.90;;
45077;SDS011;60508;42.622;25.416;2023-05-29T01:37:24;5.75;;;4.40;;
45077;SDS011;60508;42.622;25.416;2023-05-29T01:39:51;5.82;;;3.40;;
45077;SDS011;60508;42.622;25.416;2023-05-29T01:42:26;3.05;;;2.75;;
45077;SDS011;60508;42.622;25.416;2023-05-29T01:44:54;6.95;;;3.28;;
45077;SDS011;60508;42.622;25.416;2023-05-29T01:47:22;8.35;;;3.05;;
45077;SDS011;60508;42.622;25.416;2023-05-29T01:49:49;6.97;;;3.10;;
45077;SDS011;60508;42.622;25.416;2023-05-29T01:52:18;9.25;;;2.88;;
45077;SDS011;60508;42.622;25.416;2023-05-29T01:54:45;4.30;;;2.58;;
45077;SDS011;60508;42.622;25.416;2023-05-29T01:57:11;6.63;;;3.35;;
45077;SDS011;60508;42.622;25.416;2023-05-29T01:59:39;3.92;;;3.45;;
45077;SDS011;60508;42.622;25.416;2023-05-29T02:02:15;4.75;;;3.15;;
45077;SDS011;60508;42.622;25.416;2023-05-29T02:04:42;6.28;;;2.75;;
45077;SDS011;60508;42.622;25.416;2023-05-29T02:07:09;6.45;;;3.55;;
45077;SDS011;60508;42.622;25.416;2023-05-29T02:09:46;3.85;;;2.70;;
45077;SDS011;60508;42.622;25.416;2023-05-29T02:12:12;4.20;;;2.75;;
45077;SDS011;60508;42.622;25.416;2023-05-29T02:14:39;4.97;;;3.60;;
45077;SDS011;60508;42.622;25.416;2023-05-29T02:17:07;5.75;;;3.95;;
45077;SDS011;60508;42.622;25.416;2023-05-29T02:19:35;3.35;;;3.05;;
45077;SDS011;60508;42.622;25.416;2023-05-29T02:22:03;7.97;;;3.10;;
45077;SDS011;60508;42.622;25.416;2023-05-29T02:24:37;5.38;;;3.63;;
45077;SDS011;60508;42.622;25.416;2023-05-29T02:27:04;6.75;;;3.83;;
45077;SDS011;60508;42.622;25.416;2023-05-29T02:29:30;6.97;;;4.80;;
45077;SDS011;60508;42.622;25.416;2023-05-29T02:31:57;5.05;;;4.38;;
45077;SDS011;60508;42.622;25.416;2023-05-29T02:34:23;6.05;;;3.78;;
45077;SDS011;60508;42.622;25.416;2023-05-29T02:36:50;9.35;;;3.90;;
45077;SDS011;60508;42.622;25.416;2023-05-29T02:39:28;4.15;;;3.67;;
45077;SDS011;60508;42.622;25.416;2023-05-29T02:41:55;9.65;;;4.30;;
45077;SDS011;60508;42.622;25.416;2023-05-29T02:44:22;5.28;;;3.97;;
45077;SDS011;60508;42.622;25.416;2023-05-29T02:46:56;4.35;;;3.08;;
45077;SDS011;60508;42.622;25.416;2023-05-29T02:49:23;5.53;;;3.63;;
45077;SDS011;60508;42.622;25.416;2023-05-29T02:51:51;7.38;;;3.55;;
45077;SDS011;60508;42.622;25.416;2023-05-29T02:54:25;10.20;;;3.92;;
45077;SDS011;60508;42.622;25.416;2023-05-29T02:57:00;10.53;;;4.57;;
45077;SDS011;60508;42.622;25.416;2023-05-29T02:59:28;5.60;;;3.78;;
45077;SDS011;60508;42.622;25.416;2023-05-29T03:01:56;5.72;;;4.53;;
45077;SDS011;60508;42.622;25.416;2023-05-29T03:04:23;9.23;;;4.25;;
45077;SDS011;60508;42.622;25.416;2023-05-29T03:06:58;7.80;;;4.07;;
45077;SDS011;60508;42.622;25.416;2023-05-29T03:09:25;3.70;;;3.08;;
45077;SDS011;60508;42.622;25.416;2023-05-29T03:11:52;3.75;;;3.03;;
45077;SDS011;60508;42.622;25.416;2023-05-29T03:14:27;6.38;;;3.60;;
45077;SDS011;60508;42.622;25.416;2023-05-29T03:16:54;5.00;;;4.13;;
45077;SDS011;60508;42.622;25.416;2023-05-29T03:19:22;4.88;;;4.38;;
45077;SDS011;60508;42.622;25.416;2023-05-29T03:21:49;4.45;;;3.97;;
45077;SDS011;60508;42.622;25.416;2023-05-29T03:24:25;4.80;;;4.20;;
45077;SDS011;60508;42.622;25.416;2023-05-29T03:26:51;11.20;;;3.92;;
45077;SDS011;60508;42.622;25.416;2023-05-29T03:29:18;11.82;;;4.18;;
45077;SDS011;60508;42.622;25.416;2023-05-29T03:31:45;4.53;;;4.07;;
45077;SDS011;60508;42.622;25.416;2023-05-29T03:34:17;9.48;;;5.22;;
45077;SDS011;60508;42.622;25.416;2023-05-29T03:36:55;6.43;;;5.82;;
45077;SDS011;60508;42.622;25.416;2023-05-29T03:39:24;5.93;;;4.57;;
45077;SDS011;60508;42.622;25.416;2023-05-29T03:41:50;17.30;;;6.78;;
45077;SDS011;60508;42.622;25.416;2023-05-29T03:44:27;8.02;;;4.75;;
45077;SDS011;60508;42.622;25.416;2023-05-29T03:46:54;8.60;;;4.95;;
45077;SDS011;60508;42.622;25.416;2023-05-29T03:49:20;10.70;;;5.30;;
45077;SDS011;60508;42.622;25.416;2023-05-29T03:51:54;10.52;;;4.75;;
45077;SDS011;60508;42.622;25.416;2023-05-29T03:54:21;5.47;;;4.95;;
45077;SDS011;60508;42.622;25.416;2023-05-29T03:56:48;5.57;;;4.97;;
45077;SDS011;60508;42.622;25.416;2023-05-29T03:59:17;5.70;;;4.90;;
45077;SDS011;60508;42.622;25.416;2023-05-29T04:01:54;7.25;;;4.75;;
45077;SDS011;60508;42.622;25.416;2023-05-29T04:04:21;8.90;;;5.15;;
45077;SDS011;60508;42.622;25.416;2023-05-29T04:06:47;11.93;;;4.95;;
45077;SDS011;60508;42.622;25.416;2023-05-29T04:09:14;6.93;;;4.47;;
45077;SDS011;60508;42.622;25.416;2023-05-29T04:11:40;4.22;;;3.83;;
45077;SDS011;60508;42.622;25.416;2023-05-29T04:14:15;5.35;;;4.32;;
45077;SDS011;60508;42.622;25.416;2023-05-29T04:16:42;8.55;;;4.68;;
45077;SDS011;60508;42.622;25.416;2023-05-29T04:19:09;7.88;;;5.38;;
45077;SDS011;60508;42.622;25.416;2023-05-29T04:21:36;8.23;;;5.18;;
45077;SDS011;60508;42.622;25.416;2023-05-29T04:24:03;6.00;;;4.97;;
45077;SDS011;60508;42.622;25.416;2023-05-29T04:26:30;6.75;;;5.00;;
45077;SDS011;60508;42.622;25.416;2023-05-29T04:29:05;15.88;;;5.68;;
45077;SDS011;60508;42.622;25.416;2023-05-29T04:31:33;6.35;;;4.47;;
45077;SDS011;60508;42.622;25.416;2023-05-29T04:33:59;6.60;;;4.72;;
45077;SDS011;60508;42.622;25.416;2023-05-29T04:36:36;6.25;;;4.53;;
45077;SDS011;60508;42.622;25.416;2023-05-29T04:39:09;7.63;;;6.35;;
45077;SDS011;60508;42.622;25.416;2023-05-29T04:41:37;6.90;;;4.50;;
45077;SDS011;60508;42.622;25.416;2023-05-29T04:44:06;7.20;;;5.13;;
45077;SDS011;60508;42.622;25.416;2023-05-29T04:46:49;7.32;;;5.25;;
45077;SDS011;60508;42.622;25.416;2023-05-29T04:49:18;10.85;;;5.15;;
45077;SDS011;60508;42.622;25.416;2023-05-29T04:51:46;8.75;;;4.88;;
45077;SDS011;60508;42.622;25.416;2023-05-29T04:54:16;11.30;;;4.85;;
45077;SDS011;60508;42.622;25.416;2023-05-29T04:56:42;5.57;;;4.35;;
45077;SDS011;60508;42.622;25.416;2023-05-29T04:59:12;6.32;;;4.20;;
45077;SDS011;60508;42.622;25.416;2023-05-29T05:01:40;8.07;;;4.57;;
45077;SDS011;60508;42.622;25.416;2023-05-29T05:04:09;6.20;;;4.55;;
45077;SDS011;60508;42.622;25.416;2023-05-29T05:06:37;6.25;;;4.00;;
45077;SDS011;60508;42.622;25.416;2023-05-29T05:09:03;8.75;;;3.60;;
45077;SDS011;60508;42.622;25.416;2023-05-29T05:11:30;4.75;;;3.70;;
45077;SDS011;60508;42.622;25.416;2023-05-29T05:14:04;7.43;;;3.85;;
45077;SDS011;60508;42.622;25.416;2023-05-29T05:16:31;7.60;;;5.63;;
45077;SDS011;60508;42.622;25.416;2023-05-29T05:18:59;8.98;;;4.68;;
45077;SDS011;60508;42.622;25.416;2023-05-29T05:21:25;9.00;;;4.13;;
45077;SDS011;60508;42.622;25.416;2023-05-29T05:24:02;7.82;;;3.78;;
45077;SDS011;60508;42.622;25.416;2023-05-29T05:26:29;7.07;;;3.72;;
45077;SDS011;60508;42.622;25.416;2023-05-29T05:28:56;4.72;;;4.07;;
45077;SDS011;60508;42.622;25.416;2023-05-29T05:31:32;9.88;;;4.50;;
45077;SDS011;60508;42.622;25.416;2023-05-29T05:33:59;6.72;;;3.95;;
45077;SDS011;60508;42.622;25.416;2023-05-29T05:36:26;14.70;;;4.35;;
45077;SDS011;60508;42.622;25.416;2023-05-29T05:38:58;7.10;;;4.00;;
45077;SDS011;60508;42.622;25.416;2023-05-29T05:41:24;6.63;;;4.95;;
45077;SDS011;60508;42.622;25.416;2023-05-29T05:43:52;9.40;;;4.85;;
45077;SDS011;60508;42.622;25.416;2023-05-29T05:46:27;5.53;;;4.03;;
45077;SDS011;60508;42.622;25.416;2023-05-29T05:49:02;5.93;;;4.28;;
45077;SDS011;60508;42.622;25.416;2023-05-29T05:51:29;17.80;;;4.68;;
45077;SDS011;60508;42.622;25.416;2023-05-29T05:53:56;7.60;;;4.30;;
45077;SDS011;60508;42.622;25.416;2023-05-29T05:56:32;9.35;;;4.30;;
45077;SDS011;60508;42.622;25.416;2023-05-29T05:58:59;8.43;;;4.70;;
45077;SDS011;60508;42.622;25.416;2023-05-29T06:01:27;7.30;;;4.40;;
45077;SDS011;60508;42.622;25.416;2023-05-29T06:04:01;7.45;;;4.28;;
45077;SDS011;60508;42.622;25.416;2023-05-29T06:06:30;11.07;;;3.28;;
45077;SDS011;60508;42.622;25.416;2023-05-29T06:08:58;13.55;;;3.67;;
45077;SDS011;60508;42.622;25.416;2023-05-29T06:11:33;3.95;;;3.25;;
45077;SDS011;60508;42.622;25.416;2023-05-29T06:14:02;3.58;;;3.20;;
45077;SDS011;60508;42.622;25.416;2023-05-29T06:16:31;3.53;;;2.70;;
45077;SDS011;60508;42.622;25.416;2023-05-29T06:19:01;3.83;;;2.60;;
45077;SDS011;60508;42.622;25.416;2023-05-29T06:21:31;2.90;;;2.60;;
45077;SDS011;60508;42.622;25.416;2023-05-29T06:23:58;4.53;;;2.58;;
45077;SDS011;60508;42.622;25.416;2023-05-29T06:26:26;6.10;;;2.47;;
45077;SDS011;60508;42.622;25.416;2023-05-29T06:28:54;2.15;;;2.05;;
45077;SDS011;60508;42.622;25.416;2023-05-29T06:31:27;2.45;;;2.25;;
45077;SDS011;60508;42.622;25.416;2023-05-29T06:33:55;2.28;;;2.03;;
45077;SDS011;60508;42.622;25.416;2023-05-29T06:36:21;5.63;;;2.92;;
45077;SDS011;60508;42.622;25.416;2023-05-29T06:38:54;2.90;;;2.47;;
45077;SDS011;60508;42.622;25.416;2023-05-29T06:41:21;2.60;;;2.40;;
45077;SDS011;60508;42.622;25.416;2023-05-29T06:43:49;2.30;;;2.10;;
45077;SDS011;60508;42.622;25.416;2023-05-29T06:46:17;2.73;;;2.30;;
45077;SDS011;60508;42.622;25.416;2023-05-29T06:48:44;1.90;;;1.70;;
45077;SDS011;60508;42.622;25.416;2023-05-29T06:51:19;2.45;;;2.25;;
45077;SDS011;60508;42.622;25.416;2023-05-29T06:53:54;2.15;;;1.95;;
45077;SDS011;60508;42.622;25.416;2023-05-29T06:56:22;1.90;;;1.70;;
45077;SDS011;60508;42.622;25.416;2023-05-29T06:58:49;4.30;;;2.00;;
45077;SDS011;60508;42.622;25.416;2023-05-29T07:01:16;1.75;;;1.50;;
45077;SDS011;60508;42.622;25.416;2023-05-29T07:04:09;1.63;;;1.48;;
45077;SDS011;60508;42.622;25.416;2023-05-29T07:06:37;2.35;;;2.15;;
45077;SDS011;60508;42.622;25.416;2023-05-29T07:09:06;6.00;;;1.73;;
45077;SDS011;60508;42.622;25.416;2023-05-29T07:11:38;2.30;;;1.90;;
45077;SDS011;60508;42.622;25.416;2023-05-29T07:14:05;2.83;;;1.73;;
45077;SDS011;60508;42.622;25.416;2023-05-29T07:16:33;2.33;;;1.83;;
45077;SDS011;60508;42.622;25.416;2023-05-29T07:19:03;2.58;;;2.20;;
45077;SDS011;60508;42.622;25.416;2023-05-29T07:21:38;2.45;;;1.70;;
45077;SDS011;60508;42.622;25.416;2023-05-29T07:24:12;2.35;;;2.08;;
45077;SDS011;60508;42.622;25.416;2023-05-29T07:26:39;2.72;;;2.05;;
45077;SDS011;60508;42.622;25.416;2023-05-29T07:29:06;2.45;;;2.25;;
45077;SDS011;60508;42.622;25.416;2023-05-29T07:31:33;2.13;;;1.98;;
45077;SDS011;60508;42.622;25.416;2023-05-29T07:33:59;3.97;;;1.55;;
45077;SDS011;60508;42.622;25.416;2023-05-29T07:36:36;3.88;;;2.67;;
45077;SDS011;60508;42.622;25.416;2023-05-29T07:39:07;3.28;;;2.00;;
45077;SDS011;60508;42.622;25.416;2023-05-29T07:41:34;5.13;;;2.33;;
45077;SDS011;60508;42.622;25.416;2023-05-29T07:44:09;6.60;;;2.25;;
45077;SDS011;60508;42.622;25.416;2023-05-29T07:46:35;4.45;;;1.80;;
45077;SDS011;60508;42.622;25.416;2023-05-29T07:49:28;4.63;;;1.77;;
45077;SDS011;60508;42.622;25.416;2023-05-29T07:51:55;2.00;;;1.80;;
45077;SDS011;60508;42.622;25.416;2023-05-29T07:54:21;8.77;;;1.98;;
45077;SDS011;60508;42.622;25.416;2023-05-29T07:56:51;11.52;;;2.72;;
45077;SDS011;60508;42.622;25.416;2023-05-29T07:59:18;2.30;;;2.10;;
45077;SDS011;60508;42.622;25.416;2023-05-29T08:01:45;2.78;;;1.48;;
45077;SDS011;60508;42.622;25.416;2023-05-29T08:04:28;2.33;;;2.10;;
45077;SDS011;60508;42.622;25.416;2023-05-29T08:07:03;2.03;;;1.85;;
45077;SDS011;60508;42.622;25.416;2023-05-29T08:09:30;2.50;;;1.67;;
45077;SDS011;60508;42.622;25.416;2023-05-29T08:11:57;2.00;;;1.90;;
45077;SDS011;60508;42.622;25.416;2023-05-29T08:14:25;2.10;;;1.67;;
45077;SDS011;60508;42.622;25.416;2023-05-29T08:19:29;2.67;;;2.28;;
45077;SDS011;60508;42.622;25.416;2023-05-29T08:21:55;1.33;;;1.20;;
45077;SDS011;60508;42.622;25.416;2023-05-29T08:24:22;6.20;;;1.48;;
45077;SDS011;60508;42.622;25.416;2023-05-29T08:26:57;2.88;;;1.70;;
45077;SDS011;60508;42.622;25.416;2023-05-29T08:29:27;5.80;;;1.00;;
45077;SDS011;60508;42.622;25.416;2023-05-29T08:31:53;1.52;;;0.98;;
45077;SDS011;60508;42.622;25.416;2023-05-29T08:34:28;2.30;;;1.25;;
45077;SDS011;60508;42.622;25.416;2023-05-29T08:36:55;1.25;;;1.15;;
45077;SDS011;60508;42.622;25.416;2023-05-29T08:39:22;5.63;;;1.35;;
45077;SDS011;60508;42.622;25.416;2023-05-29T08:45:00;1.50;;;1.40;;
45077;SDS011;60508;42.622;25.416;2023-05-29T08:47:31;1.52;;;1.25;;
45077;SDS011;60508;42.622;25.416;2023-05-29T08:50:00;1.33;;;1.23;;
45077;SDS011;60508;42.622;25.416;2023-05-29T08:52:29;1.00;;;1.00;;
45077;SDS011;60508;42.622;25.416;2023-05-29T08:55:10;1.55;;;1.13;;
45077;SDS011;60508;42.622;25.416;2023-05-29T08:57:37;5.80;;;1.30;;
45077;SDS011;60508;42.622;25.416;2023-05-29T09:00:06;1.05;;;0.95;;
45077;SDS011;60508;42.622;25.416;2023-05-29T09:02:39;1.42;;;0.95;;
45077;SDS011;60508;42.622;25.416;2023-05-29T09:05:13;1.13;;;0.80;;
45077;SDS011;60508;42.622;25.416;2023-05-29T09:07:42;2.70;;;1.38;;
45077;SDS011;60508;42.622;25.416;2023-05-29T09:10:10;1.58;;;1.30;;
45077;SDS011;60508;42.622;25.416;2023-05-29T09:12:36;2.10;;;1.50;;
45077;SDS011;60508;42.622;25.416;2023-05-29T09:15:22;1.30;;;1.05;;
45077;SDS011;60508;42.622;25.416;2023-05-29T09:17:58;14.18;;;1.10;;
45077;SDS011;60508;42.622;25.416;2023-05-29T09:20:33;2.05;;;0.95;;
45077;SDS011;60508;42.622;25.416;2023-05-29T09:23:01;2.03;;;1.25;;
45077;SDS011;60508;42.622;25.416;2023-05-29T09:25:33;1.25;;;1.08;;
45077;SDS011;60508;42.622;25.416;2023-05-29T09:28:06;0.90;;;0.60;;
45077;SDS011;60508;42.622;25.416;2023-05-29T09:30:43;1.27;;;0.95;;
45077;SDS011;60508;42.622;25.416;2023-05-29T09:33:13;1.70;;;1.10;;
45077;SDS011;60508;42.622;25.416;2023-05-29T09:35:45;5.38;;;0.93;;
45077;SDS011;60508;42.622;25.416;2023-05-29T09:38:13;0.90;;;0.80;;
45077;SDS011;60508;42.622;25.416;2023-05-29T09:40:44;1.35;;;1.00;;
45077;SDS011;60508;42.622;25.416;2023-05-29T09:43:21;0.95;;;0.90;;
45077;SDS011;60508;42.622;25.416;2023-05-29T09:45:49;3.03;;;1.20;;
45077;SDS011;60508;42.622;25.416;2023-05-29T09:48:17;0.90;;;0.73;;
45077;SDS011;60508;42.622;25.416;2023-05-29T09:50:53;1.05;;;0.95;;
45077;SDS011;60508;42.622;25.416;2023-05-29T09:53:30;3.85;;;1.15;;
45077;SDS011;60508;42.622;25.416;2023-05-29T09:55:57;1.38;;;1.08;;
45077;SDS011;60508;42.622;25.416;2023-05-29T09:58:26;1.90;;;1.00;;
45077;SDS011;60508;42.622;25.416;2023-05-29T10:00:54;0.95;;;0.90;;
45077;SDS011;60508;42.622;25.416;2023-05-29T10:03:22;2.08;;;1.10;;
45077;SDS011;60508;42.622;25.416;2023-05-29T10:05:50;1.42;;;1.17;;
45077;SDS011;60508;42.622;25.416;2023-05-29T10:08:19;4.90;;;1.33;;
45077;SDS011;60508;42.622;25.416;2023-05-29T10:10:48;1.00;;;1.00;;
45077;SDS011;60508;42.622;25.416;2023-05-29T10:13:38;1.40;;;0.77;;
45077;SDS011;60508;42.622;25.416;2023-05-29T10:16:08;3.85;;;0.90;;
45077;SDS011;60508;42.622;25.416;2023-05-29T10:21:13;2.10;;;1.10;;
45077;SDS011;60508;42.622;25.416;2023-05-29T10:23:43;0.93;;;0.80;;
45077;SDS011;60508;42.622;25.416;2023-05-29T10:26:15;1.17;;;0.98;;
45077;SDS011;60508;42.622;25.416;2023-05-29T10:29:03;1.50;;;1.25;;
45077;SDS011;60508;42.622;25.416;2023-05-29T10:40:04;0.70;;;0.70;;
45077;SDS011;60508;42.622;25.416;2023-05-29T10:42:46;1.35;;;0.70;;
45077;SDS011;60508;42.622;25.416;2023-05-29T10:53:08;3.10;;;1.33;;
45077;SDS011;60508;42.622;25.416;2023-05-29T10:56:14;1.52;;;1.20;;
45077;SDS011;60508;42.622;25.416;2023-05-29T10:58:44;1.80;;;1.25;;
45077;SDS011;60508;42.622;25.416;2023-05-29T11:01:29;2.70;;;1.25;;
45077;SDS011;60508;42.622;25.416;2023-05-29T11:06:41;1.20;;;0.90;;
45077;SDS011;60508;42.622;25.416;2023-05-29T11:14:55;1.67;;;1.30;;
45077;SDS011;60508;42.622;25.416;2023-05-29T11:17:30;3.05;;;1.70;;
45077;SDS011;60508;42.622;25.416;2023-05-29T11:23:14;3.58;;;1.30;;
45077;SDS011;60508;42.622;25.416;2023-05-29T11:25:51;1.92;;;1.52;;
45077;SDS011;60508;42.622;25.416;2023-05-29T11:28:19;1.13;;;1.02;;
45077;SDS011;60508;42.622;25.416;2023-05-29T11:30:46;2.42;;;1.55;;
45077;SDS011;60508;42.622;25.416;2023-05-29T11:33:26;1.70;;;1.60;;
45077;SDS011;60508;42.622;25.416;2023-05-29T11:35:55;2.70;;;2.50;;
45077;SDS011;60508;42.622;25.416;2023-05-29T11:38:34;5.40;;;2.63;;
45077;SDS011;60508;42.622;25.416;2023-05-29T11:41:02;4.57;;;2.40;;
45077;SDS011;60508;42.622;25.416;2023-05-29T11:43:29;2.92;;;2.10;;
45077;SDS011;60508;42.622;25.416;2023-05-29T11:45:55;2.80;;;2.00;;
45077;SDS011;60508;42.622;25.416;2023-05-29T11:48:22;4.47;;;3.55;;
45077;SDS011;60508;42.622;25.416;2023-05-29T11:50:49;2.92;;;2.40;;
45077;SDS011;60508;42.622;25.416;2023-05-29T11:53:25;2.88;;;2.58;;
45077;SDS011;60508;42.622;25.416;2023-05-29T11:55:52;6.18;;;3.20;;
45077;SDS011;60508;42.622;25.416;2023-05-29T11:58:18;4.88;;;1.90;;
45077;SDS011;60508;42.622;25.416;2023-05-29T12:00:56;2.70;;;2.33;;
45077;SDS011;60508;42.622;25.416;2023-05-29T12:03:23;3.92;;;2.92;;
45077;SDS011;60508;42.622;25.416;2023-05-29T12:05:50;3.58;;;2.45;;
45077;SDS011;60508;42.622;25.416;2023-05-29T12:08:20;2.88;;;2.03;;
45077;SDS011;60508;42.622;25.416;2023-05-29T12:10:49;2.92;;;1.90;;
45077;SDS011;60508;42.622;25.416;2023-05-29T12:13:21;3.28;;;2.20;;
45077;SDS011;60508;42.622;25.416;2023-05-29T12:15:51;2.60;;;2.15;;
45077;SDS011;60508;42.622;25.416;2023-05-29T12:18:20;3.03;;;2.50;;
45077;SDS011;60508;42.622;25.416;2023-05-29T12:20:58;2.50;;;2.28;;
45077;SDS011;60508;42.622;25.416;2023-05-29T12:23:27;3.03;;;2.45;;
45077;SDS011;60508;42.622;25.416;2023-05-29T12:25:54;9.40;;;2.33;;
45077;SDS011;60508;42.622;25.416;2023-05-29T12:28:21;3.35;;;2.08;;
45077;SDS011;60508;42.622;25.416;2023-05-29T12:30:48;5.07;;;3.05;;
45077;SDS011;60508;42.622;25.416;2023-05-29T12:33:25;3.30;;;2.28;;
45077;SDS011;60508;42.622;25.416;2023-05-29T12:35:54;4.55;;;2.78;;
45077;SDS011;60508;42.622;25.416;2023-05-29T12:38:55;6.88;;;3.35;;
45077;SDS011;60508;42.622;25.416;2023-05-29T12:41:28;3.58;;;2.63;;
45077;SDS011;60508;42.622;25.416;2023-05-29T12:43:56;2.58;;;2.38;;
45077;SDS011;60508;42.622;25.416;2023-05-29T12:46:24;4.85;;;3.05;;
45077;SDS011;60508;42.622;25.416;2023-05-29T12:48:58;3.78;;;3.38;;
45077;SDS011;60508;42.622;25.416;2023-05-29T12:51:40;3.22;;;2.92;;
45077;SDS011;60508;42.622;25.416;2023-05-29T12:54:09;5.93;;;2.63;;
45077;SDS011;60508;42.622;25.416;2023-05-29T12:56:38;8.68;;;3.00;;
45077;SDS011;60508;42.622;25.416;2023-05-29T12:59:15;3.88;;;2.15;;
45077;SDS011;60508;42.622;25.416;2023-05-29T13:01:42;3.22;;;2.67;;
45077;SDS011;60508;42.622;25.416;2023-05-29T13:04:09;3.83;;;2.40;;
45077;SDS011;60508;42.622;25.416;2023-05-29T13:06:39;3.05;;;2.53;;
45077;SDS011;60508;42.622;25.416;2023-05-29T13:09:05;4.80;;;2.60;;
45077;SDS011;60508;42.622;25.416;2023-05-29T13:11:33;2.77;;;2.37;;
45077;SDS011;60508;42.622;25.416;2023-05-29T13:14:10;3.10;;;2.65;;
45077;SDS011;60508;42.622;25.416;2023-05-29T13:16:37;5.18;;;3.00;;
45077;SDS011;60508;42.622;25.416;2023-05-29T13:19:04;4.70;;;2.50;;
45077;SDS011;60508;42.622;25.416;2023-05-29T13:21:31;4.55;;;2.45;;
45077;SDS011;60508;42.622;25.416;2023-05-29T13:23:58;6.18;;;2.92;;
45077;SDS011;60508;42.622;25.416;2023-05-29T13:26:25;2.95;;;2.13;;
45077;SDS011;60508;42.622;25.416;2023-05-29T13:28:59;3.83;;;2.78;;
45077;SDS011;60508;42.622;25.416;2023-05-29T13:31:26;4.75;;;3.65;;
45077;SDS011;60508;42.622;25.416;2023-05-29T13:33:52;7.78;;;3.53;;
45077;SDS011;60508;42.622;25.416;2023-05-29T13:36:26;4.07;;;3.17;;
45077;SDS011;60508;42.622;25.416;2023-05-29T13:38:52;4.65;;;2.58;;
45077;SDS011;60508;42.622;25.416;2023-05-29T13:41:19;3.90;;;3.17;;
45077;SDS011;60508;42.622;25.416;2023-05-29T13:43:57;4.53;;;2.50;;
45077;SDS011;60508;42.622;25.416;2023-05-29T13:46:23;4.07;;;3.67;;
45077;SDS011;60508;42.622;25.416;2023-05-29T13:48:50;2.90;;;2.67;;
45077;SDS011;60508;42.622;25.416;2023-05-29T13:51:17;4.97;;;2.88;;
45077;SDS011;60508;42.622;25.416;2023-05-29T13:53:43;5.75;;;2.80;;
45077;SDS011;60508;42.622;25.416;2023-05-29T13:56:09;2.92;;;2.63;;
45077;SDS011;60508;42.622;25.416;2023-05-29T13:58:36;3.95;;;3.55;;
45077;SDS011;60508;42.622;25.416;2023-05-29T14:01:09;3.90;;;3.33;;
45077;SDS011;60508;42.622;25.416;2023-05-29T14:03:36;3.60;;;3.30;;
45077;SDS011;60508;42.622;25.416;2023-05-29T14:06:02;6.07;;;3.03;;
45077;SDS011;60508;42.622;25.416;2023-05-29T14:08:31;2.55;;;2.13;;
45077;SDS011;60508;42.622;25.416;2023-05-29T14:11:09;2.95;;;2.45;;
45077;SDS011;60508;42.622;25.416;2023-05-29T14:13:39;3.90;;;2.80;;
45077;SDS011;60508;42.622;25.416;2023-05-29T14:16:06;4.60;;;2.95;;
45077;SDS011;60508;42.622;25.416;2023-05-29T14:18:41;2.92;;;2.47;;
45077;SDS011;60508;42.622;25.416;2023-05-29T14:21:08;2.63;;;1.98;;
45077;SDS011;60508;42.622;25.416;2023-05-29T14:23:34;9.23;;;2.35;;
45077;SDS011;60508;42.622;25.416;2023-05-29T14:26:08;3.50;;;2.90;;
45077;SDS011;60508;42.622;25.416;2023-05-29T14:28:34;3.65;;;2.97;;
45077;SDS011;60508;42.622;25.416;2023-05-29T14:31:01;6.95;;;3.10;;
45077;SDS011;60508;42.622;25.416;2023-05-29T14:33:35;10.82;;;3.03;;
45077;SDS011;60508;42.622;25.416;2023-05-29T14:36:02;4.32;;;3.08;;
45077;SDS011;60508;42.622;25.416;2023-05-29T14:38:29;3.13;;;2.83;;
45077;SDS011;60508;42.622;25.416;2023-05-29T14:41:02;4.93;;;2.92;;
45077;SDS011;60508;42.622;25.416;2023-05-29T14:43:29;3.78;;;3.45;;
45077;SDS011;60508;42.622;25.416;2023-05-29T14:45:55;3.55;;;3.25;;
45077;SDS011;60508;42.622;25.416;2023-05-29T14:48:22;4.43;;;3.63;;
45077;SDS011;60508;42.622;25.416;2023-05-29T14:50:48;5.55;;;3.15;;
45077;SDS011;60508;42.622;25.416;2023-05-29T14:53:15;9.20;;;3.40;;
45077;SDS011;60508;42.622;25.416;2023-05-29T14:55:49;4.68;;;3.33;;
45077;SDS011;60508;42.622;25.416;2023-05-29T14:58:16;5.13;;;2.80;;
45077;SDS011;60508;42.622;25.416;2023-05-29T15:00:42;5.63;;;3.05;;
45077;SDS011;60508;42.622;25.416;2023-05-29T15:03:09;3.78;;;3.38;;
45077;SDS011;60508;42.622;25.416;2023-05-29T15:05:35;4.93;;;3.10;;
45077;SDS011;60508;42.622;25.416;2023-05-29T15:08:08;3.47;;;2.95;;
45077;SDS011;60508;42.622;25.416;2023-05-29T15:13:59;4.30;;;3.00;;
45077;SDS011;60508;42.622;25.416;2023-05-29T15:16:28;3.90;;;2.60;;
45077;SDS011;60508;42.622;25.416;2023-05-29T15:18:55;7.57;;;2.70;;
45077;SDS011;60508;42.622;25.416;2023-05-29T15:21:29;5.65;;;2.33;;
45077;SDS011;60508;42.622;25.416;2023-05-29T15:23:57;4.25;;;2.78;;
45077;SDS011;60508;42.622;25.416;2023-05-29T15:26:24;3.03;;;2.50;;
45077;SDS011;60508;42.622;25.416;2023-05-29T15:28:52;5.17;;;1.80;;
45077;SDS011;60508;42.622;25.416;2023-05-29T15:31:19;4.78;;;2.30;;
45077;SDS011;60508;42.622;25.416;2023-05-29T15:33:57;3.42;;;1.70;;